createdAt,value
2023-03-14T00:00:29.786Z,1.10
2023-03-14T00:05:31.394Z,1.98
2023-03-14T00:10:32.974Z,1.88
2023-03-14T00:15:35.526Z,2.47
2023-03-14T00:20:37.177Z,1.20
2023-03-14T00:25:38.786Z,0.90
2023-03-14T00:30:40.407Z,1.40
2023-03-14T00:35:44.445Z,0.75
2023-03-14T00:40:46.151Z,0.55
2023-03-14T00:45:48.020Z,1.30
2023-03-14T00:50:50.027Z,1.08
2023-03-14T00:55:51.576Z,0.40
2023-03-14T01:00:53.115Z,0.15
2023-03-14T01:05:54.848Z,0.20
2023-03-14T01:10:56.520Z,0.30
2023-03-14T01:16:08.568Z,0.20
2023-03-14T01:21:27.700Z,0.15
2023-03-14T01:26:31.753Z,0.20
2023-03-14T01:31:33.684Z,0.20
2023-03-14T01:36:36.242Z,0.00
2023-03-14T01:41:38.055Z,0.00
2023-03-14T01:46:41.333Z,0.00
2023-03-14T01:52:04.656Z,0.08
2023-03-14T01:57:12.496Z,0.57
2023-03-14T02:02:16.506Z,0.10
2023-03-14T02:07:31.633Z,0.20
2023-03-14T02:12:43.643Z,0.13
2023-03-14T02:17:50.416Z,0.10
2023-03-14T02:23:48.767Z,0.10
2023-03-14T02:28:51.681Z,0.10
2023-03-14T02:33:53.709Z,0.10
2023-03-14T02:39:14.988Z,0.08
2023-03-14T02:44:19.238Z,0.10
2023-03-14T02:49:21.030Z,0.00
2023-03-14T02:54:22.674Z,0.00
2023-03-14T02:59:25.389Z,0.10
2023-03-14T03:04:31.298Z,0.10
2023-03-14T03:09:32.875Z,0.03
2023-03-14T03:14:34.737Z,0.10
2023-03-14T03:19:39.488Z,0.00
2023-03-14T03:24:41.118Z,0.10
2023-03-14T03:29:42.761Z,0.10
2023-03-14T03:34:44.619Z,0.20
2023-03-14T03:39:46.345Z,0.10
2023-03-14T03:44:49.376Z,0.10
2023-03-14T03:49:51.056Z,0.10
2023-03-14T03:54:52.640Z,0.20
2023-03-14T03:59:54.221Z,0.10
2023-03-14T04:04:55.751Z,0.10
2023-03-14T04:09:57.448Z,0.10
2023-03-14T04:15:19.596Z,0.05
2023-03-14T04:20:25.026Z,0.10
2023-03-14T04:25:27.313Z,0.25
2023-03-14T04:30:32.082Z,0.20
2023-03-14T04:35:56.321Z,0.10
2023-03-14T04:40:58.311Z,0.13
2023-03-14T04:46:05.535Z,0.20
2023-03-14T04:51:07.958Z,0.20
2023-03-14T04:56:10.252Z,0.20
2023-03-14T05:01:14.345Z,0.20
2023-03-14T05:06:35.896Z,0.13
2023-03-14T05:11:43.387Z,0.20
2023-03-14T05:16:56.756Z,0.20
2023-03-14T05:22:13.683Z,0.15
2023-03-14T05:27:27.099Z,0.20
2023-03-14T05:32:47.732Z,0.20
2023-03-14T05:38:00.069Z,0.20
2023-03-14T05:43:10.403Z,0.40
2023-03-14T05:48:30.460Z,0.40
2023-03-14T05:53:50.639Z,0.30
2023-03-14T05:59:09.952Z,0.28
2023-03-14T06:04:27.526Z,0.32
2023-03-14T06:09:33.555Z,0.30
2023-03-14T06:14:37.066Z,0.35
2023-03-14T06:19:38.772Z,0.40
2023-03-14T06:24:40.387Z,0.50
2023-03-14T06:29:42.030Z,0.40
2023-03-14T06:34:43.616Z,0.20
2023-03-14T06:39:45.374Z,0.30
2023-03-14T06:44:55.971Z,0.30
2023-03-14T06:49:58.519Z,0.20
2023-03-14T06:55:00.430Z,0.50
2023-03-14T07:00:04.028Z,0.30
2023-03-14T07:05:06.300Z,0.47
2023-03-14T07:10:09.805Z,0.30
2023-03-14T07:15:18.700Z,0.40
2023-03-14T07:20:24.710Z,0.40
2023-03-14T07:25:27.502Z,0.47
2023-03-14T07:30:29.305Z,0.32
2023-03-14T07:35:32.782Z,0.30
2023-03-14T07:40:34.417Z,0.30
2023-03-14T07:45:43.228Z,0.45
2023-03-14T07:50:45.249Z,0.30
2023-03-14T07:55:47.249Z,0.20
2023-03-14T08:00:49.478Z,0.30
2023-03-14T08:05:51.864Z,0.30
2023-03-14T08:10:53.455Z,0.20
2023-03-14T08:15:55.081Z,0.22
2023-03-14T08:20:56.787Z,0.30
2023-03-14T08:25:58.418Z,0.20
2023-03-14T08:31:01.073Z,0.30
2023-03-14T08:36:02.875Z,0.47
2023-03-14T08:41:05.164Z,0.30
2023-03-14T08:46:06.905Z,0.20
2023-03-14T08:51:09.587Z,0.32
2023-03-14T08:56:11.294Z,0.60
2023-03-14T09:01:13.087Z,0.30
2023-03-14T09:06:14.737Z,0.32
2023-03-14T09:11:16.386Z,0.38
2023-03-14T09:16:18.012Z,0.20
2023-03-14T09:21:19.575Z,0.10
2023-03-14T09:26:21.225Z,0.30
2023-03-14T09:31:22.757Z,3.65
2023-03-14T09:36:24.331Z,2.03
2023-03-14T09:41:30.113Z,0.20
2023-03-14T09:46:36.356Z,0.57
2023-03-14T09:51:38.697Z,0.20
2023-03-14T09:56:40.350Z,0.17
2023-03-14T10:01:41.954Z,0.30
2023-03-14T10:06:43.553Z,0.25
2023-03-14T10:11:45.225Z,0.20
2023-03-14T10:16:47.221Z,0.30
2023-03-14T10:21:55.625Z,0.30
2023-03-14T10:32:10.966Z,0.25
2023-03-14T10:37:23.795Z,0.10
2023-03-14T10:42:31.131Z,0.20
2023-03-14T10:47:33.276Z,0.17
2023-03-14T10:52:51.270Z,0.20
2023-03-14T10:57:58.920Z,0.20
2023-03-14T11:03:11.190Z,0.40
2023-03-14T11:08:32.481Z,0.20
2023-03-14T11:13:49.759Z,0.22
2023-03-14T11:19:21.129Z,0.22
2023-03-14T11:24:36.209Z,0.20
2023-03-14T11:29:42.285Z,0.50
2023-03-14T11:34:55.080Z,0.38
2023-03-14T11:40:30.585Z,0.20
2023-03-14T11:45:36.992Z,0.40
2023-03-14T11:50:40.842Z,0.38
2023-03-14T11:55:43.834Z,0.40
2023-03-14T12:00:48.144Z,1.15
2023-03-14T12:06:28.191Z,0.43
2023-03-14T12:11:53.810Z,0.40
2023-03-14T12:17:05.257Z,0.13
2023-03-14T12:22:09.667Z,0.40
2023-03-14T12:27:34.522Z,0.32
2023-03-14T12:32:36.191Z,0.22
2023-03-14T12:37:43.020Z,0.10
2023-03-14T12:42:59.128Z,0.20
2023-03-14T12:48:11.762Z,0.30
2023-03-14T12:53:38.478Z,0.20
2023-03-14T12:58:48.819Z,0.20
2023-03-14T13:03:57.754Z,0.20
2023-03-14T13:08:59.409Z,0.20
2023-03-14T13:14:00.968Z,0.20
2023-03-14T13:19:14.348Z,0.40
2023-03-14T13:24:26.322Z,0.10
2023-03-14T13:29:32.265Z,0.20
2023-03-14T13:34:35.840Z,0.20
2023-03-14T13:39:41.439Z,0.47
2023-03-14T13:44:43.280Z,0.10
2023-03-14T13:49:46.213Z,0.10
2023-03-14T13:54:47.860Z,0.10
2023-03-14T14:00:19.148Z,0.10
2023-03-14T14:05:20.745Z,0.20
2023-03-14T14:10:22.492Z,0.40
2023-03-14T14:15:27.886Z,0.20
2023-03-14T14:20:38.675Z,0.10
2023-03-14T14:25:40.910Z,0.40
2023-03-14T14:30:42.747Z,0.52
2023-03-14T14:36:01.578Z,0.30
2023-03-14T14:41:03.930Z,0.00
2023-03-14T14:46:08.901Z,0.10
2023-03-14T14:51:10.555Z,0.10
2023-03-14T14:56:18.902Z,0.45
2023-03-14T15:01:24.422Z,0.10
2023-03-14T15:06:29.877Z,0.15
2023-03-14T15:11:31.352Z,0.20
2023-03-14T15:16:33.114Z,0.20
2023-03-14T15:21:34.812Z,0.20
2023-03-14T15:26:36.480Z,0.17
2023-03-14T15:31:38.194Z,0.45
2023-03-14T15:36:39.818Z,0.40
2023-03-14T15:41:41.332Z,0.50
2023-03-14T15:46:42.861Z,0.75
2023-03-14T15:51:44.332Z,0.65
2023-03-14T15:56:45.952Z,0.50
2023-03-14T16:01:49.058Z,0.90
2023-03-14T16:06:50.756Z,0.60
2023-03-14T16:11:52.321Z,0.85
2023-03-14T16:16:55.857Z,0.93
2023-03-14T16:21:58.019Z,0.38
2023-03-14T16:26:59.577Z,0.38
2023-03-14T16:32:01.157Z,0.70
2023-03-14T16:37:02.847Z,0.40
2023-03-14T16:42:04.399Z,0.60
2023-03-14T16:47:10.035Z,0.60
2023-03-14T16:52:12.520Z,0.50
2023-03-14T16:57:14.291Z,0.60
2023-03-14T17:02:16.094Z,0.50
2023-03-14T17:07:17.655Z,0.50
2023-03-14T17:12:19.246Z,0.38
2023-03-14T17:17:20.925Z,0.50
2023-03-14T17:22:25.151Z,0.60
2023-03-14T17:27:28.977Z,0.70
2023-03-14T17:32:30.606Z,0.50
2023-03-14T17:37:32.528Z,0.45
2023-03-14T17:42:34.127Z,0.68
2023-03-14T17:47:35.655Z,0.65
2023-03-14T17:52:37.668Z,0.50
2023-03-14T17:57:40.205Z,0.73
2023-03-14T18:02:42.080Z,0.52
2023-03-14T18:07:43.905Z,0.57
2023-03-14T18:12:45.636Z,0.52
2023-03-14T18:17:47.238Z,0.55
2023-03-14T18:22:48.793Z,0.60
2023-03-14T18:27:50.322Z,0.85
2023-03-14T18:32:51.898Z,0.50
2023-03-14T18:37:53.709Z,0.75
2023-03-14T18:42:55.898Z,0.60
2023-03-14T18:47:58.229Z,0.70
2023-03-14T18:52:59.760Z,0.50
2023-03-14T18:58:01.908Z,0.75
2023-03-14T19:03:04.521Z,0.70
2023-03-14T19:08:06.072Z,0.85
2023-03-14T19:13:07.603Z,0.60
2023-03-14T19:18:10.872Z,0.60
2023-03-14T19:23:14.086Z,0.45
2023-03-14T19:28:15.721Z,0.80
2023-03-14T19:33:18.369Z,0.80
2023-03-14T19:38:19.877Z,0.60
2023-03-14T19:43:21.371Z,0.68
2023-03-14T19:48:29.938Z,0.65
2023-03-14T19:53:31.741Z,0.75
2023-03-14T19:58:34.417Z,0.70
2023-03-14T20:03:36.667Z,0.68
2023-03-14T20:08:39.267Z,0.82
2023-03-14T20:13:40.966Z,0.90
2023-03-14T20:18:42.689Z,0.80
2023-03-14T20:23:44.453Z,1.10
2023-03-14T20:28:47.197Z,1.15
2023-03-14T20:33:51.291Z,2.22
2023-03-14T20:38:53.601Z,1.25
2023-03-14T20:43:55.107Z,2.80
2023-03-14T20:48:56.602Z,2.05
2023-03-14T20:53:58.312Z,1.00
2023-03-14T20:58:59.813Z,1.00
2023-03-14T21:04:01.395Z,1.20
2023-03-14T21:09:05.455Z,1.45
2023-03-14T21:14:07.188Z,1.00
2023-03-14T21:19:08.751Z,1.08
2023-03-14T21:24:10.316Z,0.80
2023-03-14T21:29:11.816Z,0.90
2023-03-14T21:34:13.466Z,1.10
2023-03-14T21:39:15.238Z,1.23
2023-03-14T21:44:18.968Z,1.60
2023-03-14T21:49:20.495Z,2.00
2023-03-14T21:54:22.076Z,1.80
2023-03-14T21:59:24.042Z,1.23
2023-03-14T22:04:25.901Z,1.00
2023-03-14T22:09:28.502Z,1.02
2023-03-14T22:14:30.069Z,1.02
2023-03-14T22:19:35.024Z,1.00
2023-03-14T22:24:36.552Z,1.20
2023-03-14T22:29:38.036Z,0.80
2023-03-14T22:34:39.641Z,0.90
2023-03-14T22:39:41.310Z,1.13
2023-03-14T22:44:42.846Z,0.93
2023-03-14T22:49:44.485Z,1.58
2023-03-14T22:54:46.070Z,1.10
2023-03-14T22:59:47.604Z,1.10
2023-03-14T23:04:49.326Z,1.17
2023-03-14T23:09:51.124Z,0.95
2023-03-14T23:14:53.932Z,0.30
2023-03-14T23:19:55.676Z,0.22
2023-03-14T23:24:57.217Z,0.40
2023-03-14T23:29:59.164Z,0.30
2023-03-14T23:35:00.714Z,0.60
2023-03-14T23:40:03.528Z,0.85
2023-03-14T23:45:05.497Z,0.73
2023-03-14T23:50:07.542Z,0.70
2023-03-14T23:55:09.491Z,0.80
